Bearden, Oklahoma
Current Conditions -  °F | °C
As of 6:35 AM on Monday 22 Dec 2014 (Local Time) from KOKM Reporting Station
Overcast Overcast  
Wind Chill: 42°   Ceiling: 900
Heat Index: 47°   Visibility: 7mi
Dew Point: 47°   Wind: 12mph
Humidity: 99%   Direction: 160°SSE
Pressure: 29.57"   Gusts: NA
Location:  35.469°N, 96.2923°W
Report Text: KOKM 221235Z AUTO 16010KT 7SM OVC009 08/08 A2957 RMK AO2 T00830081
Loading
Personal Weather Stations






























Interactive Weather Map New forecast layout! Learn more

10-Day Weather Forecast

Advertisements
Track Severe Weather on mobile